AWQ121 WMKK-WIMM
Flight info
| Callsign | AWQ121 |
|---|---|
| Flight time | 0h 37m |
| Altitude | 28000 |
| Route | PUGER1D PUGER |
| Aircraft | A320/M-SDE3FGHIRWY/LB1 |
Departure
| Time | 2026-04-22 05:15 |
|---|---|
| Airport | Kuala Lumpur International Airport (WMKK) |
Arrival
| Time | 2026-04-22 05:53 |
|---|---|
| Airport | Kualanamu International Airport (WIMM) |
| Time | Latitude | Longitude | Altitude | Speed | Heading |
|---|---|---|---|---|---|
| 2026-04-22 04:59 | 2.73815 | 101.68540 | 42 ft | 0 kts | 146° |
| 2026-04-22 05:03 | 2.73818 | 101.68537 | 42 ft | 3 kts | 147° |
| 2026-04-22 05:03 | 2.73842 | 101.68527 | 41 ft | 4 kts | 182° |
| 2026-04-22 05:03 | 2.73866 | 101.68535 | 40 ft | 4 kts | 229° |
| 2026-04-22 05:04 | 2.73869 | 101.68539 | 39 ft | 0 kts | 235° |
| 2026-04-22 05:07 | 2.73855 | 101.68519 | 38 ft | 11 kts | 237° |
| 2026-04-22 05:07 | 2.73825 | 101.68400 | 40 ft | 22 kts | 241° |
| 2026-04-22 05:07 | 2.73736 | 101.68273 | 42 ft | 23 kts | 236° |
| 2026-04-22 05:07 | 2.73659 | 101.68195 | 40 ft | 14 kts | 169° |
| 2026-04-22 05:08 | 2.73574 | 101.68252 | 40 ft | 16 kts | 146° |
| 2026-04-22 05:08 | 2.73497 | 101.68303 | 40 ft | 7 kts | 146° |
| 2026-04-22 05:08 | 2.73456 | 101.68331 | 40 ft | 8 kts | 146° |
| 2026-04-22 05:08 | 2.73388 | 101.68378 | 40 ft | 16 kts | 146° |
| 2026-04-22 05:09 | 2.73301 | 101.68380 | 39 ft | 16 kts | 231° |
| 2026-04-22 05:09 | 2.73196 | 101.68382 | 38 ft | 17 kts | 150° |
| 2026-04-22 05:09 | 2.73088 | 101.68450 | 38 ft | 22 kts | 146° |
| 2026-04-22 05:09 | 2.72944 | 101.68546 | 39 ft | 28 kts | 146° |
| 2026-04-22 05:10 | 2.72777 | 101.68659 | 37 ft | 29 kts | 146° |
| 2026-04-22 05:10 | 2.72617 | 101.68767 | 38 ft | 28 kts | 146° |
| 2026-04-22 05:10 | 2.72456 | 101.68875 | 38 ft | 28 kts | 146° |
| 2026-04-22 05:10 | 2.72293 | 101.68984 | 38 ft | 28 kts | 146° |
| 2026-04-22 05:11 | 2.72128 | 101.69095 | 39 ft | 29 kts | 146° |
| 2026-04-22 05:11 | 2.71962 | 101.69206 | 39 ft | 29 kts | 146° |
| 2026-04-22 05:11 | 2.71795 | 101.69320 | 39 ft | 29 kts | 146° |
| 2026-04-22 05:11 | 2.71624 | 101.69435 | 39 ft | 30 kts | 145° |
| 2026-04-22 05:12 | 2.71453 | 101.69551 | 39 ft | 30 kts | 146° |
| 2026-04-22 05:12 | 2.71279 | 101.69667 | 39 ft | 30 kts | 146° |
| 2026-04-22 05:12 | 2.71105 | 101.69784 | 39 ft | 30 kts | 146° |
| 2026-04-22 05:12 | 2.70971 | 101.69868 | 40 ft | 10 kts | 173° |
| 2026-04-22 05:13 | 2.70923 | 101.69833 | 40 ft | 8 kts | 234° |
| 2026-04-22 05:13 | 2.70894 | 101.69792 | 39 ft | 7 kts | 235° |
| 2026-04-22 05:13 | 2.70868 | 101.69755 | 39 ft | 6 kts | 236° |
| 2026-04-22 05:13 | 2.70881 | 101.69727 | 39 ft | 2 kts | 338° |
| 2026-04-22 05:14 | 2.70884 | 101.69724 | 39 ft | 0 kts | 320° |
| 2026-04-22 05:14 | 2.70889 | 101.69720 | 39 ft | 7 kts | 324° |
| 2026-04-22 05:14 | 2.71127 | 101.69562 | 38 ft | 79 kts | 326° |
| 2026-04-22 05:14 | 2.71760 | 101.69135 | 40 ft | 138 kts | 326° |
| 2026-04-22 05:15 | 2.72693 | 101.68508 | 127 ft | 176 kts | 326° |
| 2026-04-22 05:15 | 2.73697 | 101.67842 | 804 ft | 174 kts | 326° |
| 2026-04-22 05:15 | 2.74725 | 101.67179 | 1365 ft | 182 kts | 326° |
| 2026-04-22 05:15 | 2.75821 | 101.66407 | 1701 ft | 202 kts | 316° |
| 2026-04-22 05:16 | 2.76509 | 101.65138 | 1987 ft | 224 kts | 281° |
| 2026-04-22 05:16 | 2.76636 | 101.63524 | 2369 ft | 248 kts | 269° |
| 2026-04-22 05:16 | 2.76548 | 101.61716 | 2952 ft | 264 kts | 266° |
| 2026-04-22 05:16 | 2.76451 | 101.59883 | 3784 ft | 269 kts | 267° |
| 2026-04-22 05:17 | 2.76384 | 101.58005 | 4685 ft | 272 kts | 269° |
| 2026-04-22 05:17 | 2.76444 | 101.56107 | 5557 ft | 275 kts | 279° |
| 2026-04-22 05:17 | 2.76977 | 101.54262 | 6412 ft | 278 kts | 293° |
| 2026-04-22 05:17 | 2.77746 | 101.52475 | 7222 ft | 281 kts | 294° |
| 2026-04-22 05:18 | 2.79328 | 101.48846 | 8851 ft | 288 kts | 294° |
| 2026-04-22 05:18 | 2.80134 | 101.46997 | 9672 ft | 292 kts | 294° |
| 2026-04-22 05:18 | 2.80956 | 101.45110 | 10185 ft | 306 kts | 294° |
| 2026-04-22 05:19 | 2.81839 | 101.43081 | 10399 ft | 329 kts | 294° |
| 2026-04-22 05:19 | 2.82778 | 101.40920 | 10706 ft | 346 kts | 294° |
| 2026-04-22 05:19 | 2.83750 | 101.38686 | 11307 ft | 353 kts | 295° |
| 2026-04-22 05:19 | 2.84998 | 101.36566 | 11935 ft | 356 kts | 307° |
| 2026-04-22 05:20 | 2.86665 | 101.34712 | 12577 ft | 360 kts | 316° |
| 2026-04-22 05:20 | 2.88450 | 101.32940 | 13215 ft | 364 kts | 316° |
| 2026-04-22 05:20 | 2.90256 | 101.31140 | 13822 ft | 368 kts | 316° |
| 2026-04-22 05:20 | 2.92078 | 101.29320 | 14397 ft | 372 kts | 316° |
| 2026-04-22 05:21 | 2.93915 | 101.27481 | 14979 ft | 375 kts | 316° |
| 2026-04-22 05:21 | 2.95767 | 101.25627 | 15537 ft | 378 kts | 316° |
| 2026-04-22 05:21 | 2.97632 | 101.23761 | 16101 ft | 381 kts | 316° |
| 2026-04-22 05:21 | 2.99515 | 101.21876 | 16655 ft | 384 kts | 315° |
| 2026-04-22 05:22 | 3.01408 | 101.19980 | 17201 ft | 387 kts | 315° |
| 2026-04-22 05:22 | 3.03320 | 101.18064 | 17749 ft | 390 kts | 315° |
| 2026-04-22 05:22 | 3.05245 | 101.16138 | 18262 ft | 393 kts | 315° |
| 2026-04-22 05:22 | 3.07189 | 101.14194 | 18707 ft | 396 kts | 315° |
| 2026-04-22 05:23 | 3.09142 | 101.12238 | 19144 ft | 399 kts | 315° |
| 2026-04-22 05:23 | 3.11089 | 101.10292 | 19565 ft | 402 kts | 315° |
| 2026-04-22 05:23 | 3.13103 | 101.08282 | 19995 ft | 405 kts | 315° |
| 2026-04-22 05:23 | 3.15107 | 101.06278 | 20420 ft | 408 kts | 315° |
| 2026-04-22 05:24 | 3.17120 | 101.04264 | 20845 ft | 411 kts | 315° |
| 2026-04-22 05:24 | 3.19122 | 101.02257 | 21254 ft | 414 kts | 315° |
| 2026-04-22 05:24 | 3.21125 | 101.00168 | 21651 ft | 418 kts | 310° |
| 2026-04-22 05:24 | 3.22790 | 100.97782 | 22047 ft | 421 kts | 300° |
| 2026-04-22 05:25 | 3.24002 | 100.95108 | 22430 ft | 425 kts | 289° |
| 2026-04-22 05:25 | 3.24772 | 100.92232 | 22818 ft | 428 kts | 284° |
| 2026-04-22 05:25 | 3.25470 | 100.89322 | 23195 ft | 431 kts | 284° |
| 2026-04-22 05:25 | 3.26173 | 100.86400 | 23553 ft | 434 kts | 284° |
| 2026-04-22 05:26 | 3.26884 | 100.83455 | 23869 ft | 436 kts | 284° |
| 2026-04-22 05:26 | 3.27599 | 100.80501 | 24194 ft | 438 kts | 284° |
| 2026-04-22 05:26 | 3.28321 | 100.77527 | 24515 ft | 440 kts | 284° |
| 2026-04-22 05:26 | 3.29047 | 100.74540 | 24832 ft | 442 kts | 284° |
| 2026-04-22 05:27 | 3.29772 | 100.71544 | 25151 ft | 444 kts | 284° |
| 2026-04-22 05:27 | 3.30500 | 100.68528 | 25459 ft | 446 kts | 284° |
| 2026-04-22 05:27 | 3.31228 | 100.65504 | 25759 ft | 449 kts | 284° |
| 2026-04-22 05:27 | 3.31962 | 100.62459 | 26052 ft | 451 kts | 284° |
| 2026-04-22 05:28 | 3.32697 | 100.59407 | 26346 ft | 453 kts | 284° |
| 2026-04-22 05:28 | 3.33437 | 100.56332 | 26636 ft | 455 kts | 284° |
| 2026-04-22 05:28 | 3.34180 | 100.53251 | 26931 ft | 457 kts | 284° |
| 2026-04-22 05:28 | 3.34928 | 100.50148 | 27220 ft | 459 kts | 284° |
| 2026-04-22 05:29 | 3.35678 | 100.47038 | 27511 ft | 461 kts | 284° |
| 2026-04-22 05:29 | 3.36423 | 100.43949 | 27782 ft | 463 kts | 284° |
| 2026-04-22 05:29 | 3.37189 | 100.40773 | 27876 ft | 464 kts | 284° |
| 2026-04-22 05:29 | 3.37936 | 100.37674 | 27887 ft | 463 kts | 284° |
| 2026-04-22 05:30 | 3.38704 | 100.34503 | 27885 ft | 463 kts | 284° |
| 2026-04-22 05:30 | 3.39461 | 100.31366 | 27884 ft | 463 kts | 284° |
| 2026-04-22 05:30 | 3.40118 | 100.28215 | 27866 ft | 463 kts | 278° |
| 2026-04-22 05:30 | 3.40553 | 100.25055 | 27041 ft | 467 kts | 278° |
| 2026-04-22 05:31 | 3.40982 | 100.21833 | 26180 ft | 468 kts | 278° |
| 2026-04-22 05:31 | 3.41403 | 100.18611 | 25484 ft | 465 kts | 278° |
| 2026-04-22 05:31 | 3.41821 | 100.15413 | 24857 ft | 461 kts | 278° |
| 2026-04-22 05:31 | 3.42240 | 100.12252 | 24255 ft | 457 kts | 278° |
| 2026-04-22 05:32 | 3.42660 | 100.09112 | 23663 ft | 453 kts | 278° |
| 2026-04-22 05:32 | 3.43080 | 100.06000 | 23004 ft | 449 kts | 278° |
| 2026-04-22 05:32 | 3.43504 | 100.02940 | 22679 ft | 437 kts | 278° |
| 2026-04-22 05:32 | 3.43925 | 99.99986 | 22454 ft | 423 kts | 278° |
| 2026-04-22 05:33 | 3.44274 | 99.97084 | 22005 ft | 417 kts | 272° |
| 2026-04-22 05:33 | 3.43970 | 99.94222 | 21629 ft | 413 kts | 255° |
| 2026-04-22 05:33 | 3.42900 | 99.91568 | 21383 ft | 413 kts | 241° |
| 2026-04-22 05:33 | 3.41495 | 99.89059 | 21145 ft | 412 kts | 240° |
| 2026-04-22 05:34 | 3.40080 | 99.86572 | 20901 ft | 411 kts | 240° |
| 2026-04-22 05:34 | 3.38658 | 99.84095 | 20658 ft | 409 kts | 240° |
| 2026-04-22 05:34 | 3.37237 | 99.81629 | 20420 ft | 408 kts | 240° |
| 2026-04-22 05:34 | 3.35826 | 99.79179 | 20185 ft | 406 kts | 240° |
| 2026-04-22 05:35 | 3.34420 | 99.76729 | 19952 ft | 404 kts | 240° |
| 2026-04-22 05:35 | 3.33024 | 99.74291 | 19720 ft | 403 kts | 240° |
| 2026-04-22 05:35 | 3.31654 | 99.71896 | 19558 ft | 401 kts | 240° |
| 2026-04-22 05:35 | 3.30270 | 99.69476 | 19443 ft | 400 kts | 240° |
| 2026-04-22 05:36 | 3.28893 | 99.67067 | 19328 ft | 399 kts | 241° |
| 2026-04-22 05:36 | 3.27517 | 99.64658 | 19214 ft | 398 kts | 241° |
| 2026-04-22 05:36 | 3.26143 | 99.62255 | 19102 ft | 397 kts | 241° |
| 2026-04-22 05:36 | 3.24772 | 99.59858 | 18988 ft | 396 kts | 241° |
| 2026-04-22 05:37 | 3.23691 | 99.57345 | 18874 ft | 393 kts | 256° |
| 2026-04-22 05:37 | 3.23376 | 99.54641 | 18758 ft | 391 kts | 273° |
| 2026-04-22 05:37 | 3.23614 | 99.51940 | 18649 ft | 390 kts | 276° |
| 2026-04-22 05:37 | 3.23891 | 99.49241 | 18536 ft | 389 kts | 276° |
| 2026-04-22 05:38 | 3.24173 | 99.46549 | 18426 ft | 388 kts | 277° |
| 2026-04-22 05:38 | 3.24455 | 99.43857 | 18258 ft | 387 kts | 277° |
| 2026-04-22 05:38 | 3.24734 | 99.41180 | 18027 ft | 386 kts | 276° |
| 2026-04-22 05:38 | 3.25007 | 99.38520 | 17767 ft | 384 kts | 276° |
| 2026-04-22 05:39 | 3.25277 | 99.35866 | 17510 ft | 382 kts | 276° |
| 2026-04-22 05:39 | 3.25543 | 99.33227 | 17260 ft | 381 kts | 276° |
| 2026-04-22 05:39 | 3.25811 | 99.30593 | 17011 ft | 379 kts | 276° |
| 2026-04-22 05:39 | 3.26079 | 99.27982 | 16686 ft | 375 kts | 277° |
| 2026-04-22 05:40 | 3.26346 | 99.25389 | 16193 ft | 373 kts | 277° |
| 2026-04-22 05:40 | 3.26611 | 99.22816 | 15694 ft | 372 kts | 277° |
| 2026-04-22 05:40 | 3.26875 | 99.20243 | 15192 ft | 371 kts | 277° |
| 2026-04-22 05:40 | 3.27139 | 99.17752 | 14926 ft | 350 kts | 277° |
| 2026-04-22 05:41 | 3.27388 | 99.15379 | 14799 ft | 336 kts | 277° |
| 2026-04-22 05:41 | 3.27627 | 99.13068 | 14184 ft | 337 kts | 277° |
| 2026-04-22 05:41 | 3.27879 | 99.10701 | 13096 ft | 344 kts | 277° |
| 2026-04-22 05:41 | 3.28133 | 99.08385 | 12698 ft | 325 kts | 277° |
| 2026-04-22 05:42 | 3.28368 | 99.06109 | 12336 ft | 329 kts | 276° |
| 2026-04-22 05:42 | 3.28587 | 99.03824 | 11867 ft | 330 kts | 276° |
| 2026-04-22 05:42 | 3.28803 | 99.01534 | 11410 ft | 331 kts | 276° |
| 2026-04-22 05:42 | 3.29021 | 98.99240 | 10914 ft | 332 kts | 276° |
| 2026-04-22 05:43 | 3.29246 | 98.96941 | 10445 ft | 332 kts | 276° |
| 2026-04-22 05:43 | 3.29468 | 98.94715 | 10314 ft | 320 kts | 277° |
| 2026-04-22 05:43 | 3.29688 | 98.92535 | 10196 ft | 309 kts | 277° |
| 2026-04-22 05:43 | 3.29903 | 98.90422 | 9991 ft | 303 kts | 277° |
| 2026-04-22 05:44 | 3.30116 | 98.88343 | 9859 ft | 297 kts | 277° |
| 2026-04-22 05:44 | 3.30327 | 98.86292 | 9745 ft | 295 kts | 277° |
| 2026-04-22 05:44 | 3.30537 | 98.84239 | 9318 ft | 299 kts | 277° |
| 2026-04-22 05:44 | 3.30750 | 98.82180 | 9046 ft | 295 kts | 278° |
| 2026-04-22 05:45 | 3.31268 | 98.80209 | 8725 ft | 292 kts | 295° |
| 2026-04-22 05:45 | 3.32315 | 98.78483 | 8380 ft | 290 kts | 310° |
| 2026-04-22 05:45 | 3.33733 | 98.77061 | 8015 ft | 289 kts | 317° |
| 2026-04-22 05:45 | 3.35183 | 98.75687 | 7505 ft | 285 kts | 317° |
| 2026-04-22 05:46 | 3.36615 | 98.74322 | 6909 ft | 284 kts | 316° |
| 2026-04-22 05:46 | 3.38041 | 98.72960 | 6320 ft | 282 kts | 316° |
| 2026-04-22 05:46 | 3.39454 | 98.71609 | 5700 ft | 281 kts | 316° |
| 2026-04-22 05:46 | 3.40863 | 98.70262 | 5112 ft | 279 kts | 316° |
| 2026-04-22 05:47 | 3.42323 | 98.68999 | 4441 ft | 278 kts | 331° |
| 2026-04-22 05:47 | 3.44134 | 98.68582 | 4113 ft | 263 kts | 7° |
| 2026-04-22 05:47 | 3.45757 | 98.69207 | 3959 ft | 244 kts | 38° |
| 2026-04-22 05:47 | 3.46981 | 98.70301 | 3839 ft | 229 kts | 44° |
| 2026-04-22 05:48 | 3.48074 | 98.71391 | 3756 ft | 216 kts | 45° |
| 2026-04-22 05:48 | 3.48767 | 98.72086 | 3646 ft | 211 kts | 45° |
| 2026-04-22 05:48 | 3.49793 | 98.73110 | 3393 ft | 206 kts | 45° |
| 2026-04-22 05:48 | 3.50797 | 98.74110 | 3137 ft | 202 kts | 45° |
| 2026-04-22 05:49 | 3.51786 | 98.75095 | 2882 ft | 198 kts | 45° |
| 2026-04-22 05:49 | 3.53080 | 98.76385 | 2552 ft | 195 kts | 45° |
| 2026-04-22 05:49 | 3.53716 | 98.77017 | 2387 ft | 193 kts | 45° |
| 2026-04-22 05:49 | 3.54642 | 98.77940 | 2139 ft | 184 kts | 45° |
| 2026-04-22 05:50 | 3.55521 | 98.78815 | 1918 ft | 173 kts | 45° |
| 2026-04-22 05:50 | 3.56356 | 98.79647 | 1703 ft | 166 kts | 45° |
| 2026-04-22 05:50 | 3.57161 | 98.80450 | 1481 ft | 160 kts | 45° |
| 2026-04-22 05:50 | 3.57937 | 98.81224 | 1285 ft | 154 kts | 45° |
| 2026-04-22 05:51 | 3.58683 | 98.81974 | 1068 ft | 150 kts | 44° |
| 2026-04-22 05:51 | 3.59421 | 98.82707 | 875 ft | 148 kts | 44° |
| 2026-04-22 05:51 | 3.60147 | 98.83428 | 690 ft | 146 kts | 43° |
| 2026-04-22 05:51 | 3.60867 | 98.84149 | 524 ft | 147 kts | 43° |
| 2026-04-22 05:52 | 3.61591 | 98.84869 | 338 ft | 146 kts | 43° |
| 2026-04-22 05:52 | 3.62294 | 98.85572 | 155 ft | 143 kts | 43° |
| 2026-04-22 05:52 | 3.62990 | 98.86272 | 39 ft | 136 kts | 44° |
| 2026-04-22 05:52 | 3.63544 | 98.86819 | 36 ft | 87 kts | 45° |
| 2026-04-22 05:53 | 3.63853 | 98.87127 | 37 ft | 38 kts | 45° |
| 2026-04-22 05:53 | 3.63991 | 98.87269 | 36 ft | 28 kts | 45° |
| 2026-04-22 05:53 | 3.64095 | 98.87443 | 35 ft | 31 kts | 74° |
| 2026-04-22 05:53 | 3.64153 | 98.87652 | 36 ft | 32 kts | 66° |
| 2026-04-22 05:54 | 3.64265 | 98.87789 | 39 ft | 17 kts | 46° |
| 2026-04-22 05:54 | 3.64282 | 98.87874 | 39 ft | 14 kts | 131° |
| 2026-04-22 05:54 | 3.64297 | 98.87956 | 40 ft | 14 kts | 70° |
| 2026-04-22 05:54 | 3.64249 | 98.88031 | 40 ft | 14 kts | 133° |
| 2026-04-22 05:55 | 3.64171 | 98.88107 | 40 ft | 18 kts | 136° |
| 2026-04-22 05:55 | 3.64114 | 98.88147 | 40 ft | 7 kts | 188° |
| 2026-04-22 05:55 | 3.64077 | 98.88114 | 40 ft | 8 kts | 225° |
| 2026-04-22 05:55 | 3.64039 | 98.88076 | 40 ft | 7 kts | 225° |
| 2026-04-22 05:56 | 3.64003 | 98.88040 | 40 ft | 7 kts | 225° |
| 2026-04-22 05:56 | 3.63970 | 98.88007 | 40 ft | 7 kts | 225° |
| 2026-04-22 05:56 | 3.63938 | 98.87976 | 40 ft | 6 kts | 225° |
| 2026-04-22 05:56 | 3.63905 | 98.87958 | 40 ft | 5 kts | 174° |
| 2026-04-22 05:57 | 3.63874 | 98.87967 | 40 ft | 3 kts | 183° |
| 2026-04-22 05:57 | 3.63857 | 98.87954 | 38 ft | 3 kts | 224° |
| 2026-04-22 05:57 | 3.63836 | 98.87933 | 40 ft | 6 kts | 225° |
| 2026-04-22 05:57 | 3.63811 | 98.87907 | 40 ft | 3 kts | 225° |
| 2026-04-22 05:58 | 3.63806 | 98.87902 | 40 ft | 0 kts | 225° |